sensor_id;sensor_type;location;lat;lon;timestamp;pressure;altitude;pressure_sealevel;temperature
69857;BMP280;57147;53.582;10.112;2024-01-07T00:01:03;101922.03;;;-0.10
69857;BMP280;57147;53.582;10.112;2024-01-07T00:06:03;101931.97;;;-0.21
69857;BMP280;57147;53.582;10.112;2024-01-07T00:11:04;101929.91;;;-0.25
69857;BMP280;57147;53.582;10.112;2024-01-07T00:16:04;101911.59;;;-0.46
69857;BMP280;57147;53.582;10.112;2024-01-07T00:21:04;101947.66;;;-0.35
69857;BMP280;57147;53.582;10.112;2024-01-07T00:26:05;101948.47;;;-0.35
69857;BMP280;57147;53.582;10.112;2024-01-07T00:31:05;101944.06;;;-0.49
69857;BMP280;57147;53.582;10.112;2024-01-07T00:36:05;101951.91;;;-0.34
69857;BMP280;57147;53.582;10.112;2024-01-07T00:41:06;101948.56;;;-0.43
69857;BMP280;57147;53.582;10.112;2024-01-07T00:46:06;101952.00;;;-0.42
69857;BMP280;57147;53.582;10.112;2024-01-07T00:51:07;101951.53;;;-0.46
69857;BMP280;57147;53.582;10.112;2024-01-07T00:56:07;101977.00;;;-0.48
69857;BMP280;57147;53.582;10.112;2024-01-07T01:01:07;101975.03;;;-0.46
69857;BMP280;57147;53.582;10.112;2024-01-07T01:06:08;101991.03;;;-0.49
69857;BMP280;57147;53.582;10.112;2024-01-07T01:11:09;101977.00;;;-0.63
69857;BMP280;57147;53.582;10.112;2024-01-07T01:16:10;101941.34;;;-1.00
69857;BMP280;57147;53.582;10.112;2024-01-07T01:21:10;102011.88;;;-0.78
69857;BMP280;57147;53.582;10.112;2024-01-07T01:26:10;102009.88;;;-0.76
69857;BMP280;57147;53.582;10.112;2024-01-07T01:31:14;102020.59;;;-0.71
69857;BMP280;57147;53.582;10.112;2024-01-07T01:36:14;102012.91;;;-0.88
69857;BMP280;57147;53.582;10.112;2024-01-07T01:41:16;102023.97;;;-0.86
69857;BMP280;57147;53.582;10.112;2024-01-07T01:46:16;102031.94;;;-0.64
69857;BMP280;57147;53.582;10.112;2024-01-07T01:51:16;102045.69;;;-0.70
69857;BMP280;57147;53.582;10.112;2024-01-07T01:56:18;102006.94;;;-1.11
69857;BMP280;57147;53.582;10.112;2024-01-07T02:01:19;102052.66;;;-0.86
69857;BMP280;57147;53.582;10.112;2024-01-07T02:06:21;102059.72;;;-0.71
69857;BMP280;57147;53.582;10.112;2024-01-07T02:11:22;102063.66;;;-0.75
69857;BMP280;57147;53.582;10.112;2024-01-07T02:16:22;102061.91;;;-0.60
69857;BMP280;57147;53.582;10.112;2024-01-07T02:21:22;102066.41;;;-0.54
69857;BMP280;57147;53.582;10.112;2024-01-07T02:26:24;102029.47;;;-0.80
69857;BMP280;57147;53.582;10.112;2024-01-07T02:31:24;102077.31;;;-0.50
69857;BMP280;57147;53.582;10.112;2024-01-07T02:36:24;102030.41;;;-0.73
69857;BMP280;57147;53.582;10.112;2024-01-07T02:41:24;102085.88;;;-0.42
69857;BMP280;57147;53.582;10.112;2024-01-07T02:46:24;102085.06;;;-0.28
69857;BMP280;57147;53.582;10.112;2024-01-07T02:51:25;102094.59;;;-0.20
69857;BMP280;57147;53.582;10.112;2024-01-07T02:56:25;102096.22;;;-0.19
69857;BMP280;57147;53.582;10.112;2024-01-07T03:01:25;102090.75;;;-0.09
69857;BMP280;57147;53.582;10.112;2024-01-07T03:06:26;102105.41;;;-0.08
69857;BMP280;57147;53.582;10.112;2024-01-07T03:11:27;102100.66;;;-0.05
69857;BMP280;57147;53.582;10.112;2024-01-07T03:16:27;102109.28;;;-0.04
69857;BMP280;57147;53.582;10.112;2024-01-07T03:21:27;102112.19;;;0.01
69857;BMP280;57147;53.582;10.112;2024-01-07T03:26:30;102084.97;;;-0.20
69857;BMP280;57147;53.582;10.112;2024-01-07T03:31:30;102121.09;;;-0.08
69857;BMP280;57147;53.582;10.112;2024-01-07T03:36:30;102114.97;;;-0.01
69857;BMP280;57147;53.582;10.112;2024-01-07T03:41:30;102132.53;;;-0.09
69857;BMP280;57147;53.582;10.112;2024-01-07T03:46:31;102142.59;;;-0.06
69857;BMP280;57147;53.582;10.112;2024-01-07T03:51:31;102139.47;;;-0.02
69857;BMP280;57147;53.582;10.112;2024-01-07T03:56:31;102148.84;;;0.07
69857;BMP280;57147;53.582;10.112;2024-01-07T04:01:31;102152.88;;;0.10
69857;BMP280;57147;53.582;10.112;2024-01-07T04:06:32;102155.75;;;0.15
69857;BMP280;57147;53.582;10.112;2024-01-07T04:11:32;102153.75;;;0.17
69857;BMP280;57147;53.582;10.112;2024-01-07T04:16:32;102172.69;;;0.19
69857;BMP280;57147;53.582;10.112;2024-01-07T04:21:33;102171.53;;;0.07
69857;BMP280;57147;53.582;10.112;2024-01-07T04:26:33;102182.78;;;0.22
69857;BMP280;57147;53.582;10.112;2024-01-07T04:31:33;102174.66;;;0.17
69857;BMP280;57147;53.582;10.112;2024-01-07T04:36:33;102189.53;;;0.31
69857;BMP280;57147;53.582;10.112;2024-01-07T04:41:34;102190.16;;;0.33
69857;BMP280;57147;53.582;10.112;2024-01-07T04:46:34;102143.69;;;0.14
69857;BMP280;57147;53.582;10.112;2024-01-07T04:51:35;102187.91;;;0.45
69857;BMP280;57147;53.582;10.112;2024-01-07T04:56:35;102197.19;;;0.47
69857;BMP280;57147;53.582;10.112;2024-01-07T05:01:35;102204.59;;;0.44
69857;BMP280;57147;53.582;10.112;2024-01-07T05:06:35;102197.91;;;0.41
69857;BMP280;57147;53.582;10.112;2024-01-07T05:11:39;102207.03;;;0.45
69857;BMP280;57147;53.582;10.112;2024-01-07T05:16:40;102204.41;;;0.45
69857;BMP280;57147;53.582;10.112;2024-01-07T05:21:40;102226.22;;;0.53
69857;BMP280;57147;53.582;10.112;2024-01-07T05:26:44;102222.06;;;0.43
69857;BMP280;57147;53.582;10.112;2024-01-07T05:31:44;102162.59;;;0.16
69857;BMP280;57147;53.582;10.112;2024-01-07T05:36:44;102216.75;;;0.52
69857;BMP280;57147;53.582;10.112;2024-01-07T05:41:45;102219.72;;;0.49
69857;BMP280;57147;53.582;10.112;2024-01-07T05:46:45;102235.47;;;0.55
69857;BMP280;57147;53.582;10.112;2024-01-07T05:51:45;102255.22;;;0.58
69857;BMP280;57147;53.582;10.112;2024-01-07T05:56:46;102252.88;;;0.63
69857;BMP280;57147;53.582;10.112;2024-01-07T06:01:46;102267.28;;;0.59
69857;BMP280;57147;53.582;10.112;2024-01-07T06:06:46;102269.38;;;0.49
69857;BMP280;57147;53.582;10.112;2024-01-07T06:11:46;102268.75;;;0.46
69857;BMP280;57147;53.582;10.112;2024-01-07T06:16:46;102290.00;;;0.43
69857;BMP280;57147;53.582;10.112;2024-01-07T06:21:47;102280.63;;;0.34
69857;BMP280;57147;53.582;10.112;2024-01-07T06:26:47;102237.34;;;0.02
69857;BMP280;57147;53.582;10.112;2024-01-07T06:31:47;102282.59;;;0.32
69857;BMP280;57147;53.582;10.112;2024-01-07T06:36:47;102282.97;;;0.29
69857;BMP280;57147;53.582;10.112;2024-01-07T06:41:48;102307.88;;;0.17
69857;BMP280;57147;53.582;10.112;2024-01-07T06:46:48;102304.03;;;0.13
69857;BMP280;57147;53.582;10.112;2024-01-07T06:51:48;102306.63;;;0.13
69857;BMP280;57147;53.582;10.112;2024-01-07T06:56:48;102317.50;;;0.02
69857;BMP280;57147;53.582;10.112;2024-01-07T07:01:48;102330.38;;;0.03
69857;BMP280;57147;53.582;10.112;2024-01-07T07:06:49;102344.19;;;0.12
69857;BMP280;57147;53.582;10.112;2024-01-07T07:11:49;102347.50;;;0.06
69857;BMP280;57147;53.582;10.112;2024-01-07T07:16:49;102333.50;;;-0.01
69857;BMP280;57147;53.582;10.112;2024-01-07T07:21:49;102335.72;;;-0.13
69857;BMP280;57147;53.582;10.112;2024-01-07T07:26:50;102352.53;;;-0.15
69857;BMP280;57147;53.582;10.112;2024-01-07T07:31:50;102349.88;;;-0.07
69857;BMP280;57147;53.582;10.112;2024-01-07T07:36:50;102362.53;;;0.04
69857;BMP280;57147;53.582;10.112;2024-01-07T07:41:50;102369.72;;;0.02
69857;BMP280;57147;53.582;10.112;2024-01-07T07:46:50;102372.72;;;-0.09
69857;BMP280;57147;53.582;10.112;2024-01-07T07:51:51;102370.72;;;0.01
69857;BMP280;57147;53.582;10.112;2024-01-07T07:56:51;102376.09;;;-0.01
69857;BMP280;57147;53.582;10.112;2024-01-07T08:01:51;102377.59;;;-0.06
69857;BMP280;57147;53.582;10.112;2024-01-07T08:06:52;102385.78;;;-0.09
69857;BMP280;57147;53.582;10.112;2024-01-07T08:11:52;102402.44;;;-0.10
69857;BMP280;57147;53.582;10.112;2024-01-07T08:16:52;102407.19;;;-0.45
69857;BMP280;57147;53.582;10.112;2024-01-07T08:21:52;102409.16;;;-0.47
69857;BMP280;57147;53.582;10.112;2024-01-07T08:26:53;102409.81;;;-0.45
69857;BMP280;57147;53.582;10.112;2024-01-07T08:31:53;102403.47;;;-0.50
69857;BMP280;57147;53.582;10.112;2024-01-07T08:36:53;102415.75;;;-0.28
69857;BMP280;57147;53.582;10.112;2024-01-07T08:41:53;102427.09;;;-0.44
69857;BMP280;57147;53.582;10.112;2024-01-07T08:46:54;102442.75;;;-0.44
69857;BMP280;57147;53.582;10.112;2024-01-07T08:51:54;102445.25;;;-0.28
69857;BMP280;57147;53.582;10.112;2024-01-07T08:56:54;102458.94;;;-0.17
69857;BMP280;57147;53.582;10.112;2024-01-07T09:01:54;102459.28;;;-0.21
69857;BMP280;57147;53.582;10.112;2024-01-07T09:06:55;102470.16;;;-0.09
69857;BMP280;57147;53.582;10.112;2024-01-07T09:11:55;102482.88;;;-0.06
69857;BMP280;57147;53.582;10.112;2024-01-07T09:16:55;102486.34;;;-0.13
69857;BMP280;57147;53.582;10.112;2024-01-07T09:21:55;102493.44;;;0.01
69857;BMP280;57147;53.582;10.112;2024-01-07T09:26:56;102489.72;;;-0.05
69857;BMP280;57147;53.582;10.112;2024-01-07T09:31:56;102490.91;;;-0.15
69857;BMP280;57147;53.582;10.112;2024-01-07T09:36:56;102505.88;;;-0.01
69857;BMP280;57147;53.582;10.112;2024-01-07T09:41:56;102509.19;;;-0.15
69857;BMP280;57147;53.582;10.112;2024-01-07T09:46:58;102513.44;;;-0.23
69857;BMP280;57147;53.582;10.112;2024-01-07T09:51:59;102521.59;;;-0.17
69857;BMP280;57147;53.582;10.112;2024-01-07T09:57:02;102519.38;;;-0.37
69857;BMP280;57147;53.582;10.112;2024-01-07T10:02:03;102523.97;;;-0.39
69857;BMP280;57147;53.582;10.112;2024-01-07T10:07:04;102520.28;;;-0.22
69857;BMP280;57147;53.582;10.112;2024-01-07T10:12:04;102521.94;;;-0.21
69857;BMP280;57147;53.582;10.112;2024-01-07T10:17:14;102518.66;;;-0.23
69857;BMP280;57147;53.582;10.112;2024-01-07T10:22:14;102524.47;;;-0.04
69857;BMP280;57147;53.582;10.112;2024-01-07T10:27:15;102535.09;;;-0.06
69857;BMP280;57147;53.582;10.112;2024-01-07T10:32:15;102536.19;;;0.08
69857;BMP280;57147;53.582;10.112;2024-01-07T10:37:15;102541.78;;;-0.03
69857;BMP280;57147;53.582;10.112;2024-01-07T10:42:18;102531.38;;;-0.11
69857;BMP280;57147;53.582;10.112;2024-01-07T10:47:19;102522.53;;;-0.10
69857;BMP280;57147;53.582;10.112;2024-01-07T10:52:21;102536.94;;;0.17
69857;BMP280;57147;53.582;10.112;2024-01-07T10:57:32;102553.41;;;0.25
69857;BMP280;57147;53.582;10.112;2024-01-07T11:02:41;102552.50;;;0.41
69857;BMP280;57147;53.582;10.112;2024-01-07T11:07:57;102557.91;;;0.62
69857;BMP280;57147;53.582;10.112;2024-01-07T11:12:59;102558.09;;;0.30
69857;BMP280;57147;53.582;10.112;2024-01-07T11:17:59;102551.41;;;-0.04
69857;BMP280;57147;53.582;10.112;2024-01-07T11:23:44;102558.16;;;-0.17
69857;BMP280;57147;53.582;10.112;2024-01-07T11:28:52;102555.38;;;-0.24
69857;BMP280;57147;53.582;10.112;2024-01-07T11:33:53;102518.03;;;-0.25
69857;BMP280;57147;53.582;10.112;2024-01-07T11:38:53;102566.66;;;0.16
69857;BMP280;57147;53.582;10.112;2024-01-07T11:43:57;102549.00;;;0.18
69857;BMP280;57147;53.582;10.112;2024-01-07T11:48:58;102558.63;;;0.25
69857;BMP280;57147;53.582;10.112;2024-01-07T11:53:59;102572.66;;;0.24
69857;BMP280;57147;53.582;10.112;2024-01-07T11:59:00;102540.47;;;0.32
69857;BMP280;57147;53.582;10.112;2024-01-07T12:04:00;102562.53;;;0.29
69857;BMP280;57147;53.582;10.112;2024-01-07T12:09:01;102562.06;;;0.26
69857;BMP280;57147;53.582;10.112;2024-01-07T12:14:01;102557.84;;;0.47
69857;BMP280;57147;53.582;10.112;2024-01-07T12:19:01;102561.56;;;0.76
69857;BMP280;57147;53.582;10.112;2024-01-07T12:24:03;102574.59;;;0.84
69857;BMP280;57147;53.582;10.112;2024-01-07T12:29:03;102572.94;;;0.83
69857;BMP280;57147;53.582;10.112;2024-01-07T12:34:03;102564.47;;;0.81
69857;BMP280;57147;53.582;10.112;2024-01-07T12:39:03;102551.75;;;0.24
69857;BMP280;57147;53.582;10.112;2024-01-07T12:44:04;102560.28;;;0.18
69857;BMP280;57147;53.582;10.112;2024-01-07T12:49:04;102564.38;;;0.52
69857;BMP280;57147;53.582;10.112;2024-01-07T12:54:04;102562.16;;;0.86
69857;BMP280;57147;53.582;10.112;2024-01-07T12:59:05;102574.47;;;0.77
69857;BMP280;57147;53.582;10.112;2024-01-07T13:04:05;102583.72;;;0.88
69857;BMP280;57147;53.582;10.112;2024-01-07T13:09:05;102579.41;;;0.50
69857;BMP280;57147;53.582;10.112;2024-01-07T13:14:06;102583.59;;;0.28
69857;BMP280;57147;53.582;10.112;2024-01-07T13:19:06;102595.94;;;0.11
69857;BMP280;57147;53.582;10.112;2024-01-07T13:24:06;102594.66;;;-0.01
69857;BMP280;57147;53.582;10.112;2024-01-07T13:29:07;102567.19;;;0.11
69857;BMP280;57147;53.582;10.112;2024-01-07T13:34:07;102603.97;;;0.40
69857;BMP280;57147;53.582;10.112;2024-01-07T13:39:07;102611.97;;;-0.00
69857;BMP280;57147;53.582;10.112;2024-01-07T13:44:08;102614.75;;;-0.02
69857;BMP280;57147;53.582;10.112;2024-01-07T13:49:08;102620.94;;;0.05
69857;BMP280;57147;53.582;10.112;2024-01-07T13:54:08;102630.00;;;0.18
69857;BMP280;57147;53.582;10.112;2024-01-07T13:59:09;102586.38;;;-0.21
69857;BMP280;57147;53.582;10.112;2024-01-07T14:04:09;102619.19;;;-0.18
69857;BMP280;57147;53.582;10.112;2024-01-07T14:09:10;102633.09;;;-0.34
69857;BMP280;57147;53.582;10.112;2024-01-07T14:14:10;102631.63;;;-0.53
69857;BMP280;57147;53.582;10.112;2024-01-07T14:19:10;102596.53;;;-1.15
69857;BMP280;57147;53.582;10.112;2024-01-07T14:24:10;102640.72;;;-1.06
69857;BMP280;57147;53.582;10.112;2024-01-07T14:29:11;102647.91;;;-1.00
69857;BMP280;57147;53.582;10.112;2024-01-07T14:34:11;102653.91;;;-1.07
69857;BMP280;57147;53.582;10.112;2024-01-07T14:39:11;102638.44;;;-1.01
69857;BMP280;57147;53.582;10.112;2024-01-07T14:44:12;102667.00;;;-0.91
69857;BMP280;57147;53.582;10.112;2024-01-07T14:49:12;102664.84;;;-0.88
69857;BMP280;57147;53.582;10.112;2024-01-07T14:54:13;102667.78;;;-0.82
69857;BMP280;57147;53.582;10.112;2024-01-07T14:59:13;102677.88;;;-1.04
69857;BMP280;57147;53.582;10.112;2024-01-07T15:04:14;102683.03;;;-1.28
69857;BMP280;57147;53.582;10.112;2024-01-07T15:09:14;102679.06;;;-1.40
69857;BMP280;57147;53.582;10.112;2024-01-07T15:14:14;102687.72;;;-1.66
69857;BMP280;57147;53.582;10.112;2024-01-07T15:19:15;102682.97;;;-1.96
69857;BMP280;57147;53.582;10.112;2024-01-07T15:24:15;102687.56;;;-1.90
69857;BMP280;57147;53.582;10.112;2024-01-07T15:29:15;102690.72;;;-2.04
69857;BMP280;57147;53.582;10.112;2024-01-07T15:34:16;102697.16;;;-2.16
69857;BMP280;57147;53.582;10.112;2024-01-07T15:39:17;102698.13;;;-2.18
69857;BMP280;57147;53.582;10.112;2024-01-07T15:44:17;102698.66;;;-2.32
69857;BMP280;57147;53.582;10.112;2024-01-07T15:49:17;102699.25;;;-2.38
69857;BMP280;57147;53.582;10.112;2024-01-07T15:54:17;102696.00;;;-2.40
69857;BMP280;57147;53.582;10.112;2024-01-07T15:59:18;102608.53;;;-2.94
69857;BMP280;57147;53.582;10.112;2024-01-07T16:04:18;102703.25;;;-2.61
69857;BMP280;57147;53.582;10.112;2024-01-07T16:09:19;102701.13;;;-2.75
69857;BMP280;57147;53.582;10.112;2024-01-07T16:14:20;102719.44;;;-2.67
69857;BMP280;57147;53.582;10.112;2024-01-07T16:19:20;102720.16;;;-2.47
69857;BMP280;57147;53.582;10.112;2024-01-07T16:24:20;102725.19;;;-2.46
69857;BMP280;57147;53.582;10.112;2024-01-07T16:29:20;102735.38;;;-2.35
69857;BMP280;57147;53.582;10.112;2024-01-07T16:34:20;102656.56;;;-2.80
69857;BMP280;57147;53.582;10.112;2024-01-07T16:39:21;102739.91;;;-2.19
69857;BMP280;57147;53.582;10.112;2024-01-07T16:44:22;102734.94;;;-2.12
69857;BMP280;57147;53.582;10.112;2024-01-07T16:49:22;102721.19;;;-2.23
69857;BMP280;57147;53.582;10.112;2024-01-07T16:54:22;102742.19;;;-1.98
69857;BMP280;57147;53.582;10.112;2024-01-07T16:59:22;102745.16;;;-1.93
69857;BMP280;57147;53.582;10.112;2024-01-07T17:04:22;102739.34;;;-1.87
69857;BMP280;57147;53.582;10.112;2024-01-07T17:09:23;102747.19;;;-1.79
69857;BMP280;57147;53.582;10.112;2024-01-07T17:14:23;102755.47;;;-1.83
69857;BMP280;57147;53.582;10.112;2024-01-07T17:19:23;102762.28;;;-2.08
69857;BMP280;57147;53.582;10.112;2024-01-07T17:24:30;102682.97;;;-2.40
69857;BMP280;57147;53.582;10.112;2024-01-07T17:29:30;102751.56;;;-2.05
69857;BMP280;57147;53.582;10.112;2024-01-07T17:34:31;102762.69;;;-1.95
69857;BMP280;57147;53.582;10.112;2024-01-07T17:39:31;102774.38;;;-1.81
69857;BMP280;57147;53.582;10.112;2024-01-07T17:44:31;102772.50;;;-1.89
69857;BMP280;57147;53.582;10.112;2024-01-07T17:49:32;102776.16;;;-1.82
69857;BMP280;57147;53.582;10.112;2024-01-07T17:54:33;102775.78;;;-1.87
69857;BMP280;57147;53.582;10.112;2024-01-07T17:59:34;102755.25;;;-1.90
69857;BMP280;57147;53.582;10.112;2024-01-07T18:04:34;102775.25;;;-1.73
69857;BMP280;57147;53.582;10.112;2024-01-07T18:09:34;102771.31;;;-1.77
69857;BMP280;57147;53.582;10.112;2024-01-07T18:14:39;102789.16;;;-1.82
69857;BMP280;57147;53.582;10.112;2024-01-07T18:19:39;102781.28;;;-1.90
69857;BMP280;57147;53.582;10.112;2024-01-07T18:24:39;102790.66;;;-1.79
69857;BMP280;57147;53.582;10.112;2024-01-07T18:29:40;102805.09;;;-1.85
69857;BMP280;57147;53.582;10.112;2024-01-07T18:34:40;102814.41;;;-1.82
69857;BMP280;57147;53.582;10.112;2024-01-07T18:39:40;102817.88;;;-1.74
69857;BMP280;57147;53.582;10.112;2024-01-07T18:44:40;102771.84;;;-1.91
69857;BMP280;57147;53.582;10.112;2024-01-07T18:49:40;102819.81;;;-1.76
69857;BMP280;57147;53.582;10.112;2024-01-07T18:54:41;102827.78;;;-1.77
69857;BMP280;57147;53.582;10.112;2024-01-07T18:59:41;102770.47;;;-2.21
69857;BMP280;57147;53.582;10.112;2024-01-07T19:04:42;102775.25;;;-2.16
69857;BMP280;57147;53.582;10.112;2024-01-07T19:09:42;102831.72;;;-1.91
69857;BMP280;57147;53.582;10.112;2024-01-07T19:14:42;102821.19;;;-2.07
69857;BMP280;57147;53.582;10.112;2024-01-07T19:19:43;102837.09;;;-1.93
69857;BMP280;57147;53.582;10.112;2024-01-07T19:24:43;102841.09;;;-1.80
69857;BMP280;57147;53.582;10.112;2024-01-07T19:29:43;102826.31;;;-1.98
69857;BMP280;57147;53.582;10.112;2024-01-07T19:34:43;102850.63;;;-1.89
69857;BMP280;57147;53.582;10.112;2024-01-07T19:39:44;102835.47;;;-2.11
69857;BMP280;57147;53.582;10.112;2024-01-07T19:44:44;102845.66;;;-2.18
69857;BMP280;57147;53.582;10.112;2024-01-07T19:49:44;102853.31;;;-2.16
69857;BMP280;57147;53.582;10.112;2024-01-07T19:54:45;102859.34;;;-2.16
69857;BMP280;57147;53.582;10.112;2024-01-07T19:59:46;102849.47;;;-2.12
69857;BMP280;57147;53.582;10.112;2024-01-07T20:04:46;102860.88;;;-2.05
69857;BMP280;57147;53.582;10.112;2024-01-07T20:09:46;102870.47;;;-2.24
69857;BMP280;57147;53.582;10.112;2024-01-07T20:14:46;102866.06;;;-2.41
69857;BMP280;57147;53.582;10.112;2024-01-07T20:19:46;102864.91;;;-2.29
69857;BMP280;57147;53.582;10.112;2024-01-07T20:24:47;102851.00;;;-2.20
69857;BMP280;57147;53.582;10.112;2024-01-07T20:29:47;102871.16;;;-2.22
69857;BMP280;57147;53.582;10.112;2024-01-07T20:34:47;102851.81;;;-2.19
69857;BMP280;57147;53.582;10.112;2024-01-07T20:39:47;102873.56;;;-2.10
69857;BMP280;57147;53.582;10.112;2024-01-07T20:44:48;102874.09;;;-2.07
69857;BMP280;57147;53.582;10.112;2024-01-07T20:49:48;102881.72;;;-2.05
69857;BMP280;57147;53.582;10.112;2024-01-07T20:54:48;102883.16;;;-2.11
69857;BMP280;57147;53.582;10.112;2024-01-07T20:59:48;102882.91;;;-2.00
69857;BMP280;57147;53.582;10.112;2024-01-07T21:04:49;102889.91;;;-2.00
69857;BMP280;57147;53.582;10.112;2024-01-07T21:09:49;102889.00;;;-1.91
69857;BMP280;57147;53.582;10.112;2024-01-07T21:14:49;102885.75;;;-1.75
69857;BMP280;57147;53.582;10.112;2024-01-07T21:19:49;102873.84;;;-1.78
69857;BMP280;57147;53.582;10.112;2024-01-07T21:24:50;102890.44;;;-1.79
69857;BMP280;57147;53.582;10.112;2024-01-07T21:29:50;102878.91;;;-1.76
69857;BMP280;57147;53.582;10.112;2024-01-07T21:34:50;102831.00;;;-2.01
69857;BMP280;57147;53.582;10.112;2024-01-07T21:39:51;102875.19;;;-1.74
69857;BMP280;57147;53.582;10.112;2024-01-07T21:44:52;102871.84;;;-1.66
69857;BMP280;57147;53.582;10.112;2024-01-07T21:49:52;102878.59;;;-1.56
69857;BMP280;57147;53.582;10.112;2024-01-07T21:54:52;102874.31;;;-1.47
69857;BMP280;57147;53.582;10.112;2024-01-07T21:59:52;102863.56;;;-1.62
69857;BMP280;57147;53.582;10.112;2024-01-07T22:04:53;102866.41;;;-1.73
69857;BMP280;57147;53.582;10.112;2024-01-07T22:09:53;102877.72;;;-1.64
69857;BMP280;57147;53.582;10.112;2024-01-07T22:14:53;102877.56;;;-1.63
69857;BMP280;57147;53.582;10.112;2024-01-07T22:19:53;102851.22;;;-1.42
69857;BMP280;57147;53.582;10.112;2024-01-07T22:24:53;102859.84;;;-1.41
69857;BMP280;57147;53.582;10.112;2024-01-07T22:29:54;102863.22;;;-1.49
69857;BMP280;57147;53.582;10.112;2024-01-07T22:34:54;102870.56;;;-1.44
69857;BMP280;57147;53.582;10.112;2024-01-07T22:39:54;102874.75;;;-1.51
69857;BMP280;57147;53.582;10.112;2024-01-07T22:44:55;102862.16;;;-1.56
69857;BMP280;57147;53.582;10.112;2024-01-07T22:49:55;102879.88;;;-1.42
69857;BMP280;57147;53.582;10.112;2024-01-07T22:54:55;102885.09;;;-1.42
69857;BMP280;57147;53.582;10.112;2024-01-07T22:59:55;102883.72;;;-1.28
69857;BMP280;57147;53.582;10.112;2024-01-07T23:04:56;102907.34;;;-1.30
69857;BMP280;57147;53.582;10.112;2024-01-07T23:09:56;102911.00;;;-1.14
69857;BMP280;57147;53.582;10.112;2024-01-07T23:14:56;102920.16;;;-1.10
69857;BMP280;57147;53.582;10.112;2024-01-07T23:19:56;102927.63;;;-0.90
69857;BMP280;57147;53.582;10.112;2024-01-07T23:24:57;102933.47;;;-0.96
69857;BMP280;57147;53.582;10.112;2024-01-07T23:29:57;102910.97;;;-0.97
69857;BMP280;57147;53.582;10.112;2024-01-07T23:34:58;102942.34;;;-0.80
69857;BMP280;57147;53.582;10.112;2024-01-07T23:39:58;102948.16;;;-0.87
69857;BMP280;57147;53.582;10.112;2024-01-07T23:44:58;102957.53;;;-1.02
69857;BMP280;57147;53.582;10.112;2024-01-07T23:49:58;102962.69;;;-1.10
69857;BMP280;57147;53.582;10.112;2024-01-07T23:54:59;102962.38;;;-0.89
69857;BMP280;57147;53.582;10.112;2024-01-07T23:59:59;102970.38;;;-0.82
